Time;durP1;ratioP1;P1;durP2;ratioP2;P2;SDS_P1;SDS_P2;PMS_P1;PMS_P2;Temp;Humidity;BMP_temperature;BMP_pressure;BME280_temperature;BME280_humidity;BME280_pressure;Samples;Min_cycle;Max_cycle;Signal;HPM_P1;HPM_P2
2022/06/07 00:05:40;;;;;;;6.50;2.78;;;;;;;17.64;73.00;100412.75;18497345;32;20092;-67
2022/06/07 00:15:45;;;;;;;5.15;2.40;;;;;;;17.72;72.93;100401.06;18497528;32;20104;-67
2022/06/07 00:25:51;;;;;;;7.55;3.08;;;;;;;18.08;70.95;100404.34;18497165;32;20093;-67
2022/06/07 00:35:56;;;;;;;5.85;2.97;;;;;;;17.80;71.94;100400.78;18496596;32;20433;-67
2022/06/07 00:45:59;;;;;;;6.95;3.20;;;;;;;18.04;70.17;100387.75;18496032;32;20115;-67
2022/06/07 00:56:05;;;;;;;6.95;3.12;;;;;;;17.27;73.12;100393.66;18495915;32;20092;-67
2022/06/07 01:16:30;;;;;;;5.60;2.65;;;;;;;17.54;71.35;100381.38;18494980;32;20085;-68
2022/06/07 01:26:35;;;;;;;8.38;3.10;;;;;;;17.17;73.09;100377.25;18494398;32;20395;-67
2022/06/07 01:36:38;;;;;;;5.68;2.85;;;;;;;17.24;72.43;100377.94;18493482;32;20412;-67
2022/06/07 01:46:43;;;;;;;5.40;2.62;;;;;;;16.78;73.26;100366.00;18501173;32;20097;-67
2022/06/07 01:56:46;;;;;;;5.20;2.47;;;;;;;17.01;72.46;100355.72;18501100;32;20119;-67
2022/06/07 02:06:51;;;;;;;4.72;2.22;;;;;;;17.46;70.15;100351.75;18500941;32;20137;-67
2022/06/07 02:16:54;;;;;;;5.50;2.50;;;;;;;16.95;72.59;100354.09;18500481;32;20103;-67
2022/06/07 02:27:03;;;;;;;5.15;2.47;;;;;;;16.31;74.73;100345.34;18500444;32;20132;-66
2022/06/07 02:37:07;;;;;;;4.53;2.67;;;;;;;16.90;71.74;100332.31;18499821;32;20081;-68
2022/06/07 02:47:11;;;;;;;4.85;2.60;;;;;;;16.72;72.81;100323.16;18499616;32;20115;-67
2022/06/07 02:57:15;;;;;;;6.10;2.62;;;;;;;16.73;72.85;100324.87;18498408;32;20088;-67
2022/06/07 03:07:20;;;;;;;5.60;2.58;;;;;;;16.47;74.41;100329.13;18499027;32;20453;-67
2022/06/07 03:17:24;;;;;;;5.35;2.55;;;;;;;16.45;73.79;100326.53;18498789;32;20100;-67
2022/06/07 03:27:28;;;;;;;7.80;3.17;;;;;;;16.37;74.29;100331.16;18498635;32;20093;-67
2022/06/07 03:37:32;;;;;;;6.30;3.03;;;;;;;17.29;70.71;100332.03;18498144;32;20100;-67
2022/06/07 03:47:37;;;;;;;6.78;3.03;;;;;;;16.86;74.23;100331.53;18497777;32;20376;-66
2022/06/07 03:57:40;;;;;;;6.87;2.92;;;;;;;17.34;72.06;100331.87;18497975;32;20487;-67
2022/06/07 04:18:05;;;;;;;;;;;;;;;18.27;71.69;100312.09;18519810;32;20131;-68
2022/06/07 04:28:10;;;;;;;6.53;2.62;;;;;;;19.96;68.54;100304.72;18523708;32;19990;-67
2022/06/07 04:38:14;;;;;;;4.95;1.92;;;;;;;22.28;61.83;100293.78;18519374;32;102681;-67
2022/06/07 04:48:18;;;;;;;4.07;1.90;;;;;;;22.79;59.78;100283.09;18515822;32;20471;-68
2022/06/07 04:58:21;;;;;;;3.37;1.70;;;;;;;23.63;56.20;100282.84;18493655;32;20429;-67
2022/06/07 05:08:26;;;;;;;3.03;1.42;;;;;;;24.33;53.50;100282.22;18493467;32;20167;-67
2022/06/07 05:18:29;;;;;;;2.20;1.35;;;;;;;24.11;54.95;100285.34;18490822;32;20092;-67
2022/06/07 05:28:34;;;;;;;2.55;1.50;;;;;;;24.56;54.25;100282.59;18492147;32;20101;-68
2022/06/07 05:38:37;;;;;;;5.82;1.73;;;;;;;25.42;50.91;100293.16;18491065;32;20136;-67
2022/06/07 05:48:42;;;;;;;2.10;1.20;;;;;;;24.14;55.59;100295.84;18489062;32;20381;-67
2022/06/07 05:58:47;;;;;;;2.22;1.40;;;;;;;25.34;52.67;100305.22;18523266;32;20120;-67
2022/06/07 06:19:12;;;;;;;1.87;1.40;;;;;;;24.77;54.66;100293.72;18486769;32;20385;-67
2022/06/07 06:29:17;;;;;;;3.87;1.70;;;;;;;25.60;52.67;100294.63;18492731;32;20100;-67
2022/06/07 06:39:21;;;;;;;3.37;1.42;;;;;;;24.75;54.91;100292.94;18502169;32;20100;-69
2022/06/07 06:49:26;;;;;;;1.92;1.20;;;;;;;26.21;50.30;100281.69;18499662;32;20190;-69
2022/06/07 06:59:31;;;;;;;1.80;1.10;;;;;;;27.31;47.42;100272.91;18495055;32;20100;-71
2022/06/07 07:09:37;;;;;;;23.95;5.53;;;;;;;27.28;47.69;100276.72;18507684;32;20424;-68
2022/06/07 07:19:40;;;;;;;4.07;1.40;;;;;;;28.00;44.69;100261.47;18517761;32;20096;-68
2022/06/07 07:29:45;;;;;;;2.70;1.10;;;;;;;28.94;42.49;100271.94;18271586;31;20109;-69
2022/06/07 07:39:48;;;;;;;1.98;1.10;;;;;;;31.03;38.76;100247.91;18239840;32;20105;-67
2022/06/07 07:49:54;;;;;;;3.20;1.48;;;;;;;30.83;39.49;100242.50;18249451;32;20137;-68
2022/06/07 07:59:57;;;;;;;3.60;1.10;;;;;;;31.24;34.19;100234.31;18258375;32;20098;-67
2022/06/07 08:10:03;;;;;;;1.30;1.02;;;;;;;30.37;38.22;100228.62;18239360;32;20442;-67
2022/06/07 08:20:07;;;;;;;1.58;0.80;;;;;;;28.84;40.69;100230.72;18238359;32;20101;-67
2022/06/07 08:30:13;;;;;;;2.30;1.30;;;;;;;30.06;38.68;100225.94;18239914;32;20117;-67
2022/06/07 08:40:26;;;;;;;2.92;1.10;;;;;;;29.17;39.03;100217.28;18267554;32;20106;-68
2022/06/07 08:50:35;;;;;;;3.60;1.23;;;;;;;29.20;39.16;100201.72;18257866;32;20098;-68
2022/06/07 09:00:42;;;;;;;5.53;1.80;;;;;;;29.72;38.28;100192.03;18259023;32;20102;-67
2022/06/07 09:21:24;;;;;;;1.40;0.90;;;;;;;31.98;35.54;100177.94;18044305;32;20138;-67
2022/06/07 09:31:29;;;;;;;2.35;1.10;;;;;;;31.76;35.21;100169.22;18058214;32;20114;-67
2022/06/07 09:41:39;;;;;;;3.12;1.17;;;;;;;30.43;36.77;100168.81;18086983;32;20107;-68
2022/06/07 09:51:44;;;;;;;2.12;1.30;;;;;;;29.56;40.57;100157.56;18138400;32;20094;-67
2022/06/07 10:01:54;;;;;;;1.20;1.10;;;;;;;31.56;32.60;100142.31;18283960;32;20090;-68
2022/06/07 10:12:10;;;;;;;1.83;1.10;;;;;;;30.91;34.58;100137.56;18301672;32;20089;-68
2022/06/07 10:22:31;;;;;;;1.80;1.27;;;;;;;30.35;35.63;100136.34;18244472;32;20090;-68
2022/06/07 10:32:42;;;;;;;1.90;1.10;;;;;;;32.01;29.95;100118.25;18295426;32;20098;-67
2022/06/07 10:42:49;;;;;;;1.98;1.05;;;;;;;31.63;33.40;100106.62;18252558;32;20106;-68
2022/06/07 10:53:01;;;;;;;2.00;0.82;;;;;;;32.72;28.10;100098.75;18245077;32;20101;-68
2022/06/07 11:03:12;;;;;;;103.03;13.55;;;;;;;31.68;31.63;100075.53;18242619;32;20430;-68
2022/06/07 11:13:23;;;;;;;1.58;0.90;;;;;;;31.52;30.32;100064.53;18258403;32;20146;-69
2022/06/07 11:23:31;;;;;;;5.15;1.20;;;;;;;32.84;29.12;100051.56;18240916;32;20756;-69
2022/06/07 11:34:01;;;;;;;1.23;0.97;;;;;;;32.62;28.78;100042.09;18258428;32;20131;-68
2022/06/07 11:44:14;;;;;;;2.15;0.88;;;;;;;32.56;29.32;100040.03;18242128;32;20108;-68
2022/06/07 11:54:24;;;;;;;1.83;0.80;;;;;;;33.26;29.02;100020.25;18239050;32;20382;-68
2022/06/07 12:04:55;;;;;;;1.90;0.75;;;;;;;32.21;30.21;100005.59;18249789;32;20134;-68
2022/06/07 12:15:10;;;;;;;1.10;0.90;;;;;;;32.98;27.52;99990.69;18301410;32;20090;-68
2022/06/07 12:25:18;;;;;;;2.12;0.57;;;;;;;33.37;28.14;99977.69;18304171;32;20501;-69
2022/06/07 12:35:25;;;;;;;0.70;0.70;;;;;;;33.18;28.30;99969.69;18302654;32;20126;-68
2022/06/07 12:45:33;;;;;;;0.88;0.80;;;;;;;33.39;28.83;99967.56;18302700;32;20086;-68
2022/06/07 12:55:42;;;;;;;1.00;0.60;;;;;;;34.40;24.64;99962.19;18300192;32;20172;-68
2022/06/07 13:05:46;;;;;;;0.50;0.50;;;;;;;34.32;24.70;99946.78;18299292;32;20109;-68
2022/06/07 13:15:58;;;;;;;1.33;0.90;;;;;;;33.21;26.48;99934.19;18300309;32;20098;-68
2022/06/07 13:26:11;;;;;;;2.40;0.85;;;;;;;33.37;29.29;99931.72;18296191;32;20124;-69
2022/06/07 13:36:32;;;;;;;1.98;0.80;;;;;;;32.56;27.84;99929.28;18260156;32;20449;-68
2022/06/07 13:46:39;;;;;;;2.28;0.93;;;;;;;32.94;27.40;99911.78;18298374;32;20097;-68
2022/06/07 13:56:44;;;;;;;2.70;1.00;;;;;;;31.19;30.19;99919.31;18302938;32;20378;-68
2022/06/07 14:06:48;;;;;;;0.93;0.82;;;;;;;32.94;28.14;99897.44;18304322;32;20438;-68
2022/06/07 14:16:55;;;;;;;2.15;1.02;;;;;;;31.94;31.79;99910.22;18302817;32;20098;-70
2022/06/07 14:26:59;;;;;;;1.73;1.17;;;;;;;32.50;28.92;99891.09;18304173;32;20159;-69
2022/06/07 14:37:04;;;;;;;2.58;1.30;;;;;;;31.58;30.71;99890.44;18300791;32;20089;-68
2022/06/07 14:47:15;;;;;;;11.77;1.92;;;;;;;31.34;31.05;99876.56;18241129;32;20549;-68
2022/06/07 14:57:24;;;;;;;4.90;1.27;;;;;;;31.66;31.31;99868.97;18243486;32;20108;-68
2022/06/07 15:07:29;;;;;;;7.80;1.80;;;;;;;31.02;32.39;99869.78;18236252;32;20100;-68
2022/06/07 15:17:37;;;;;;;2.92;1.62;;;;;;;30.85;31.44;99855.22;18240425;32;20156;-68
2022/06/07 15:27:40;;;;;;;2.87;1.50;;;;;;;30.48;33.04;99846.16;18235611;32;20332;-68
2022/06/07 15:37:48;;;;;;;4.15;1.95;;;;;;;30.00;33.73;99848.78;18241931;32;20108;-68
2022/06/07 15:48:05;;;;;;;3.58;1.70;;;;;;;30.66;31.17;99840.84;18296663;32;20352;-65
2022/06/07 16:08:31;;;;;;;4.28;2.20;;;;;;;29.96;33.63;99847.34;18304767;32;20096;-66
2022/06/07 16:18:36;;;;;;;5.65;2.25;;;;;;;29.68;33.59;99847.22;18284024;32;20093;-66
2022/06/07 16:39:03;;;;;;;4.43;2.20;;;;;;;29.81;34.97;99846.09;18234300;32;20116;-70
2022/06/07 16:49:08;;;;;;;3.42;1.95;;;;;;;29.91;34.26;99844.25;18281800;32;20129;-66
2022/06/07 16:59:13;;;;;;;3.37;1.98;;;;;;;29.91;35.62;99850.47;18295073;32;20117;-66
2022/06/07 17:09:17;;;;;;;4.35;1.92;;;;;;;29.88;35.74;99844.53;18239536;32;20102;-65
2022/06/07 17:19:23;;;;;;;4.03;2.30;;;;;;;29.85;36.19;99839.44;18252920;32;20165;-66
2022/06/07 17:29:26;;;;;;;7.20;2.55;;;;;;;29.55;38.58;99839.44;18288637;32;20090;-66
2022/06/07 17:39:31;;;;;;;5.10;2.42;;;;;;;29.23;38.58;99847.72;18234586;32;20462;-66
2022/06/07 17:49:34;;;;;;;111.95;28.98;;;;;;;28.93;40.23;99831.50;18234079;32;20114;-65
2022/06/07 17:59:43;;;;;;;5.10;2.60;;;;;;;28.70;42.63;99838.91;18236260;32;20443;-65
2022/06/07 18:09:46;;;;;;;4.78;2.45;;;;;;;28.20;44.36;99829.75;18235812;32;20093;-65
2022/06/07 18:19:51;;;;;;;7.60;2.60;;;;;;;28.05;43.32;99827.34;18257387;32;20450;-65
2022/06/07 18:30:15;;;;;;;3.85;2.10;;;;;;;27.61;44.41;99819.41;18242247;32;20106;-65
2022/06/07 18:40:20;;;;;;;4.72;2.40;;;;;;;27.26;45.93;99832.03;18238126;32;20114;-65
2022/06/07 18:50:26;;;;;;;11.02;2.90;;;;;;;26.90;46.58;99836.72;18263769;32;20336;-65
2022/06/07 19:00:34;;;;;;;7.65;2.30;;;;;;;26.70;47.41;99844.50;18285614;32;20098;-65
2022/06/07 19:10:39;;;;;;;4.47;2.30;;;;;;;26.51;46.88;99838.91;18241608;32;20090;-65
2022/06/07 19:20:46;;;;;;;5.20;2.72;;;;;;;26.20;49.24;99842.13;18240433;32;20098;-65
2022/06/07 19:30:52;;;;;;;5.60;2.80;;;;;;;25.76;51.97;99849.88;18259500;32;20196;-65
2022/06/07 19:40:58;;;;;;;8.20;3.25;;;;;;;25.66;51.34;99841.69;18278324;32;20114;-66
2022/06/07 19:51:05;;;;;;;4.90;2.78;;;;;;;25.45;52.10;99854.78;18238113;32;20161;-67
2022/06/07 20:01:10;;;;;;;6.97;2.75;;;;;;;25.54;52.62;99862.16;18240380;32;20098;-67
2022/06/07 20:11:19;;;;;;;7.82;2.85;;;;;;;24.94;55.16;99868.19;18285138;32;20103;-67
2022/06/07 20:21:29;;;;;;;8.75;3.37;;;;;;;25.27;54.39;99871.19;18299558;32;20104;-67
2022/06/07 20:31:32;;;;;;;6.45;3.03;;;;;;;25.14;54.72;99865.88;18293879;32;20195;-68
2022/06/07 20:41:38;;;;;;;6.47;3.12;;;;;;;25.02;56.12;99877.47;18289671;32;20340;-67
2022/06/07 20:51:41;;;;;;;7.25;3.20;;;;;;;24.65;56.84;99878.19;18283658;32;20102;-68
2022/06/07 21:01:47;;;;;;;8.75;3.17;;;;;;;24.92;55.20;99879.91;18250612;32;20472;-67
2022/06/07 21:11:50;;;;;;;5.97;2.90;;;;;;;24.64;56.64;99864.03;18239470;32;20086;-67
2022/06/07 21:21:55;;;;;;;7.57;2.70;;;;;;;24.38;57.92;99863.16;18239392;32;20113;-67
2022/06/07 21:31:59;;;;;;;5.72;2.75;;;;;;;24.61;56.33;99855.38;18238981;32;20112;-67
2022/06/07 21:42:04;;;;;;;5.20;2.60;;;;;;;24.63;56.09;99856.09;18238515;32;20150;-67
2022/06/07 21:52:08;;;;;;;5.20;2.65;;;;;;;24.06;58.56;99840.41;18238088;32;20086;-67
2022/06/07 22:02:12;;;;;;;6.70;2.78;;;;;;;24.44;57.39;99836.06;18244505;32;20108;-67
2022/06/07 22:12:16;;;;;;;5.57;2.50;;;;;;;24.57;58.09;99840.56;18245749;32;20158;-67
2022/06/07 22:22:21;;;;;;;4.03;2.40;;;;;;;24.34;59.12;99835.00;18245348;32;20449;-67
2022/06/07 22:32:26;;;;;;;5.10;2.25;;;;;;;24.19;60.12;99831.56;18244906;32;20120;-67
2022/06/07 22:42:31;;;;;;;5.85;2.58;;;;;;;23.89;61.15;99830.00;18244645;32;20415;-67
2022/06/07 22:52:38;;;;;;;4.53;2.40;;;;;;;24.08;60.80;99826.97;18244324;32;20715;-67
2022/06/07 23:02:46;;;;;;;3.42;1.95;;;;;;;24.09;60.41;99818.00;18244215;32;20103;-67
2022/06/07 23:12:50;;;;;;;5.03;2.40;;;;;;;23.83;60.94;99801.97;18243816;32;20089;-67
2022/06/07 23:23:14;;;;;;;3.65;2.12;;;;;;;23.82;61.08;99797.59;18244538;32;20116;-67
2022/06/07 23:33:18;;;;;;;5.93;2.05;;;;;;;23.87;60.37;99792.78;18243387;32;20148;-67
2022/06/07 23:43:23;;;;;;;4.22;2.22;;;;;;;23.63;60.36;99785.50;18242958;32;20122;-67
2022/06/07 23:53:26;;;;;;;4.55;2.37;;;;;;;23.62;60.18;99780.28;18242727;32;20090;-67
